Maritime Bagui — 3EGI5 — position and weather

sailwx.info

Track history (hours):
 
Tides and Currents Weather Stations Pressure Air Temp Water Temp Dewpoint Dewpoint Depression Visibility Wind Speed Wind Dir Waves Ship Positions

Maritime Bagui

Last reported at 2017-Oct-09 04:14 UTC. Time now 2017-Nov-20 17:39 UTC.
Position N 36°51' E 000°38'.
Warning: this ship's position is 42 days out of date.

Length 225 m; draft 13.5 m.

Type: Cargo ship. MMSI: 356679000.

Date/timePositionNaut miles runAvg speedWind from/ knotsBaromVisibWave heightAir tempDewpointWater temp
2017-Oct-09 04:14N 36°51' E 000°38'313.3
2017-Oct-09 03:59N 36°50' E 000°34'713.6
2017-Oct-09 03:29N 36°48' E 000°25'713.6
2017-Oct-09 03:00N 36°47' E 000°17'713.5
2017-Oct-09 02:30N 36°45' E 000°09'1213.3
2017-Oct-09 01:37N 36°43' W 000°05'313.3
2017-Oct-09 01:25N 36°42' W 000°08'613.3
2017-Oct-09 00:56N 36°40' W 000°16'713.5
2017-Oct-09 00:27N 36°38' W 000°24'613.7
2017-Oct-09 00:00N 36°36' W 000°31'1013.5
2017-Oct-08 23:16N 36°33' W 000°43'413.4
2017-Oct-08 22:59N 36°32' W 000°47'713.5
2017-Oct-08 22:26N 36°30' W 000°56'1913.5
2017-Oct-08 21:02N 36°25' W 001°19'013.4
2017-Oct-08 21:00N 36°25' W 001°19'275 7.4
2017-Oct-07 07:52N 36°03' W 006°59'513.6
2017-Oct-07 07:30N 36°04' W 007°05'713.5
2017-Oct-07 07:00N 36°06' W 007°13'713.5
2017-Oct-07 06:30N 36°08' W 007°21'713.4
2017-Oct-07 06:00N 36°10' W 007°29'713.5
2017-Oct-07 05:30N 36°11' W 007°37'713.4
2017-Oct-07 05:00N 36°13' W 007°45'613.0
2017-Oct-07 04:30N 36°15' W 007°53'612.9
2017-Oct-07 04:00N 36°17' W 008°01'713.3
2017-Oct-07 03:30N 36°19' W 008°09'713.4
2017-Oct-07 02:59N 36°21' W 008°17'613.6
2017-Oct-07 02:30N 36°22' W 008°25'713.7
2017-Oct-07 02:00N 36°24' W 008°33'713.6
2017-Oct-07 01:30N 36°26' W 008°41'713.4
2017-Oct-07 01:00N 36°28' W 008°49'713.5
2017-Oct-07 00:30N 36°30' W 008°57'713.9
2017-Oct-07 00:00N 36°31' W 009°05'713.7
2017-Oct-06 23:30N 36°33' W 009°14'713.4
2017-Oct-06 23:00N 36°37' W 009°21'713.3
2017-Oct-06 22:30N 36°42' W 009°26'713.4
2017-Oct-06 22:00N 36°47' W 009°32'713.2
2017-Oct-06 21:30N 36°53' W 009°34'713.5
2017-Oct-06 21:00N 36°59' W 009°36'713.4
2017-Oct-06 20:30N 37°06' W 009°38'713.3
2017-Oct-06 20:00N 37°12' W 009°40'713.6
2017-Oct-06 19:30N 37°19' W 009°42'713.7
2017-Oct-06 19:00N 37°26' W 009°44'713.5
2017-Oct-06 18:30N 37°32' W 009°46'713.8
2017-Oct-06 18:00N 37°39' W 009°48'713.5
2017-Oct-06 17:30N 37°46' W 009°50'714.1
2017-Oct-06 17:01N 37°52' W 009°52'714.0
2017-Oct-06 16:31N 37°59' W 009°54'713.8
2017-Oct-06 16:01N 38°06' W 009°56'713.0
2017-Oct-06 15:31N 38°12' W 009°57'713.0
2017-Oct-06 15:01N 38°19' W 009°59'713.2
2017-Oct-06 14:31N 38°25' W 010°01'713.4
2017-Oct-06 14:00N 38°32' W 010°04'714.0
2017-Oct-06 13:31N 38°38' W 010°06'713.8
2017-Oct-06 13:00N 38°45' W 010°06'713.7
2017-Oct-06 12:30N 38°52' W 010°06'713.3
2017-Oct-06 12:00N 38°59' W 010°06'713.1
2017-Oct-06 11:30N 39°05' W 010°06'713.7
2017-Oct-06 11:00N 39°12' W 010°06'713.9
2017-Oct-06 10:30N 39°19' W 010°06'713.9
2017-Oct-06 10:00N 39°26' W 010°06'713.7
2017-Oct-06 09:30N 39°33' W 010°06'713.1
2017-Oct-06 09:00N 39°39' W 010°06'713.4
2017-Oct-06 08:31N 39°46' W 010°06'713.4
2017-Oct-06 08:01N 39°53' W 010°06'713.3
2017-Oct-06 07:30N 39°60' W 010°06'713.4
2017-Oct-06 07:00N 40°06' W 010°06'713.8
2017-Oct-06 06:30N 40°13' W 010°06'713.9
2017-Oct-06 06:01N 40°20' W 010°05'1413.4
2017-Oct-06 04:57N 40°34' W 010°05'813.5
2017-Oct-06 04:22N 40°42' W 010°06'513.6
2017-Oct-06 04:01N 40°47' W 010°06'713.8
2017-Oct-06 03:30N 40°54' W 010°06'713.5
2017-Oct-06 03:00N 41°01' W 010°06'713.4
2017-Oct-06 02:30N 41°07' W 010°06'713.7
2017-Oct-06 02:00N 41°14' W 010°06'714.0
2017-Oct-06 01:30N 41°21' W 010°06'713.7
2017-Oct-06 01:00N 41°28' W 010°06'813.4
2017-Oct-06 00:27N 41°36' W 010°06'613.4
2017-Oct-06 00:00N 41°41' W 010°06'813.3
2017-Oct-05 23:26N 41°49' W 010°06'44312.9
2017-Oct-04 13:05N 48°38' W 006°01'311.8
2017-Oct-04 12:48N 48°40' W 005°59'412.0
2017-Oct-04 12:29N 48°44' W 005°56'712.5
2017-Oct-04 11:55N 48°50' W 005°51'513.0
2017-Oct-04 11:30N 48°55' W 005°47'913.5
2017-Oct-04 10:50N 48°59' W 005°35'513.9
2017-Oct-04 10:30N 49°02' W 005°29'813.9
2017-Oct-04 09:57N 49°05' W 005°19'913.8
2017-Oct-04 09:19N 49°10' W 005°08'414.0
2017-Oct-04 09:01N 49°12' W 005°02'1013.9
2017-Oct-04 08:19N 49°17' W 004°49'513.8
2017-Oct-04 07:55N 49°20' W 004°42'813.6
2017-Oct-04 07:19N 49°24' W 004°31'413.3
2017-Oct-04 06:59N 49°26' W 004°26'713.0
2017-Oct-04 06:27N 49°30' W 004°16'612.6
2017-Oct-04 06:00N 49°32' W 004°09'712.3
2017-Oct-04 05:26N 49°36' W 003°59'511.8
2017-Oct-04 05:00N 49°39' W 003°53'611.8
2017-Oct-04 04:30N 49°41' W 003°45'611.8
2017-Oct-04 04:00N 49°44' W 003°37'612.0
2017-Oct-04 03:30N 49°47' W 003°29'612.3
2017-Oct-04 03:01N 49°50' W 003°20'612.9
2017-Oct-04 02:30N 49°53' W 003°12'713.6
2017-Oct-04 02:00N 49°57' W 003°03'714.2
2017-Oct-04 01:30N 50°00' W 002°53'814.9
2017-Oct-04 01:00N 50°02' W 002°42'2815.8
2017-Oct-03 23:16N 50°10' W 002°00'415.5
2017-Oct-03 22:59N 50°11' W 001°54'714.9
2017-Oct-03 22:30N 50°13' W 001°43'714.2
2017-Oct-03 22:00N 50°14' W 001°32'713.3
2017-Oct-03 21:27N 50°16' W 001°21'2211.4
2017-Oct-03 19:30N 50°22' W 000°47'1310.6
2017-Oct-03 18:13N 50°26' W 000°27'211.3
2017-Oct-03 18:00N 50°26' W 000°23'611.8
2017-Oct-03 17:30N 50°29' W 000°15'612.4
2017-Oct-03 17:00N 50°30' W 000°05'612.8
2017-Oct-03 16:30N 50°31' E 000°05'613.1
2017-Oct-03 16:00N 50°32' E 000°15'713.9
2017-Oct-03 15:30N 50°34' E 000°25'714.3
2017-Oct-03 15:00N 50°37' E 000°36'1414.4
2017-Oct-03 14:00N 50°46' E 000°53'713.9
2017-Oct-03 13:30N 50°51' E 001°02'713.3
2017-Oct-03 12:57N 50°55' E 001°10'612.6
2017-Oct-03 12:30N 50°59' E 001°17'612.0
2017-Oct-03 12:00N 51°03' E 001°25'611.8
2017-Oct-03 11:30N 51°06' E 001°32'611.5
2017-Oct-03 11:00N 51°10' E 001°39'611.4
2017-Oct-03 10:30N 51°14' E 001°46'611.9
2017-Oct-03 10:00N 51°19' E 001°51'612.1
2017-Oct-03 09:30N 51°24' E 001°56'612.1
2017-Oct-03 09:00N 51°29' E 002°02'713.0
2017-Oct-03 08:30N 51°34' E 002°09'713.3
2017-Oct-03 07:59N 51°40' E 002°15'11111.3
2017-Oct-02 22:12N 53°21' E 003°29'510.2
2017-Oct-02 21:45N 53°25' E 003°31'28 9.4
2017-Oct-02 18:43N 53°50' E 003°56'2 8.7
2017-Oct-02 18:29N 53°51' E 003°59'4 8.6
2017-Oct-02 18:00N 53°53' E 004°04'4 8.4
2017-Oct-02 17:29N 53°56' E 004°10'4 8.1
2017-Oct-02 16:59N 53°58' E 004°16'4 8.0
2017-Oct-02 16:28N 54°01' E 004°21'4 7.9
2017-Oct-02 15:59N 54°05' E 004°24'4 8.0
2017-Oct-02 15:30N 54°08' E 004°28'4 7.9
2017-Oct-02 14:59N 54°11' E 004°32'4 7.6
2017-Oct-02 14:29N 54°14' E 004°35'290 9.0
2017-Oct-01 06:12N 57°51' E 010°20'313.9
2017-Oct-01 05:59N 57°50' E 010°25'612.2
2017-Oct-01 05:30N 57°49' E 010°36'510.4
2017-Oct-01 05:00N 57°48' E 010°45'5 9.5
2017-Oct-01 04:30N 57°43' E 010°47'610.8
2017-Oct-01 03:58N 57°41' E 010°57'612.8
2017-Oct-01 03:29N 57°37' E 011°07'613.6
2017-Oct-01 03:00N 57°33' E 011°15'174 7.0
2017-Sep-30 02:00N 54°58' E 013°39'713.2
2017-Sep-30 01:30N 55°01' E 013°50'613.0
2017-Sep-30 01:00N 55°03' E 014°00'612.7
2017-Sep-30 00:30N 55°07' E 014°09'713.1
2017-Sep-30 00:00N 55°12' E 014°17'713.5
2017-Sep-29 23:30N 55°17' E 014°24'713.5
2017-Sep-29 23:00N 55°23' E 014°31'612.9
2017-Sep-29 22:30N 55°27' E 014°39'713.2
2017-Sep-29 22:00N 55°30' E 014°49'713.2
2017-Sep-29 21:29N 55°34' E 014°60'613.2
2017-Sep-29 21:00N 55°36' E 015°10'613.0
2017-Sep-29 20:30N 55°38' E 015°21'713.4
2017-Sep-29 20:00N 55°40' E 015°32'713.6
2017-Sep-29 19:30N 55°41' E 015°44'713.4
2017-Sep-29 19:00N 55°44' E 015°56'713.4
2017-Sep-29 18:30N 55°45' E 016°07'713.2
2017-Sep-29 18:00N 55°47' E 016°18'713.1
2017-Sep-29 17:30N 55°49' E 016°30'713.3
2017-Sep-29 17:00N 55°50' E 016°41'713.3
2017-Sep-29 16:30N 55°52' E 016°53'3813.2
2017-Sep-29 13:37N 56°05' E 017°57'4113.0
2017-Sep-29 10:29N 56°27' E 018°58'  
Track history (hours):
 
Tides and Currents Weather Stations Pressure Air Temp Water Temp Dewpoint Dewpoint Depression Visibility Wind Speed Wind Dir Waves Ship Positions

Maritime Bagui

Last reported at 2017-Oct-09 04:14 UTC. Time now 2017-Nov-20 17:39 UTC.
Position N 36°51' E 000°38'.
Warning: this ship's position is 42 days out of date.

Length 225 m; draft 13.5 m.

Type: Cargo ship. MMSI: 356679000.

Date/timePositionNaut miles runAvg speedWind from/ knotsBaromVisibWave heightAir tempDewpointWater temp
2017-Oct-09 04:14N 36°51' E 000°38'313.3
2017-Oct-09 03:59N 36°50' E 000°34'713.6
2017-Oct-09 03:29N 36°48' E 000°25'713.6
2017-Oct-09 03:00N 36°47' E 000°17'713.5
2017-Oct-09 02:30N 36°45' E 000°09'1213.3
2017-Oct-09 01:37N 36°43' W 000°05'313.3
2017-Oct-09 01:25N 36°42' W 000°08'613.3
2017-Oct-09 00:56N 36°40' W 000°16'713.5
2017-Oct-09 00:27N 36°38' W 000°24'613.7
2017-Oct-09 00:00N 36°36' W 000°31'1013.5
2017-Oct-08 23:16N 36°33' W 000°43'413.4
2017-Oct-08 22:59N 36°32' W 000°47'713.5
2017-Oct-08 22:26N 36°30' W 000°56'1913.5
2017-Oct-08 21:02N 36°25' W 001°19'013.4
2017-Oct-08 21:00N 36°25' W 001°19'275 7.4
2017-Oct-07 07:52N 36°03' W 006°59'513.6
2017-Oct-07 07:30N 36°04' W 007°05'713.5
2017-Oct-07 07:00N 36°06' W 007°13'713.5
2017-Oct-07 06:30N 36°08' W 007°21'713.4
2017-Oct-07 06:00N 36°10' W 007°29'713.5
2017-Oct-07 05:30N 36°11' W 007°37'713.4
2017-Oct-07 05:00N 36°13' W 007°45'613.0
2017-Oct-07 04:30N 36°15' W 007°53'612.9
2017-Oct-07 04:00N 36°17' W 008°01'713.3
2017-Oct-07 03:30N 36°19' W 008°09'713.4
2017-Oct-07 02:59N 36°21' W 008°17'613.6
2017-Oct-07 02:30N 36°22' W 008°25'713.7
2017-Oct-07 02:00N 36°24' W 008°33'713.6
2017-Oct-07 01:30N 36°26' W 008°41'713.4
2017-Oct-07 01:00N 36°28' W 008°49'713.5
2017-Oct-07 00:30N 36°30' W 008°57'713.9
2017-Oct-07 00:00N 36°31' W 009°05'713.7
2017-Oct-06 23:30N 36°33' W 009°14'713.4
2017-Oct-06 23:00N 36°37' W 009°21'713.3
2017-Oct-06 22:30N 36°42' W 009°26'713.4
2017-Oct-06 22:00N 36°47' W 009°32'713.2
2017-Oct-06 21:30N 36°53' W 009°34'713.5
2017-Oct-06 21:00N 36°59' W 009°36'713.4
2017-Oct-06 20:30N 37°06' W 009°38'713.3
2017-Oct-06 20:00N 37°12' W 009°40'713.6
2017-Oct-06 19:30N 37°19' W 009°42'713.7
2017-Oct-06 19:00N 37°26' W 009°44'713.5
2017-Oct-06 18:30N 37°32' W 009°46'713.8
2017-Oct-06 18:00N 37°39' W 009°48'713.5
2017-Oct-06 17:30N 37°46' W 009°50'714.1
2017-Oct-06 17:01N 37°52' W 009°52'714.0
2017-Oct-06 16:31N 37°59' W 009°54'713.8
2017-Oct-06 16:01N 38°06' W 009°56'713.0
2017-Oct-06 15:31N 38°12' W 009°57'713.0
2017-Oct-06 15:01N 38°19' W 009°59'713.2
2017-Oct-06 14:31N 38°25' W 010°01'713.4
2017-Oct-06 14:00N 38°32' W 010°04'714.0
2017-Oct-06 13:31N 38°38' W 010°06'713.8
2017-Oct-06 13:00N 38°45' W 010°06'713.7
2017-Oct-06 12:30N 38°52' W 010°06'713.3
2017-Oct-06 12:00N 38°59' W 010°06'713.1
2017-Oct-06 11:30N 39°05' W 010°06'713.7
2017-Oct-06 11:00N 39°12' W 010°06'713.9
2017-Oct-06 10:30N 39°19' W 010°06'713.9
2017-Oct-06 10:00N 39°26' W 010°06'713.7
2017-Oct-06 09:30N 39°33' W 010°06'713.1
2017-Oct-06 09:00N 39°39' W 010°06'713.4
2017-Oct-06 08:31N 39°46' W 010°06'713.4
2017-Oct-06 08:01N 39°53' W 010°06'713.3
2017-Oct-06 07:30N 39°60' W 010°06'713.4
2017-Oct-06 07:00N 40°06' W 010°06'713.8
2017-Oct-06 06:30N 40°13' W 010°06'713.9
2017-Oct-06 06:01N 40°20' W 010°05'1413.4
2017-Oct-06 04:57N 40°34' W 010°05'813.5
2017-Oct-06 04:22N 40°42' W 010°06'513.6
2017-Oct-06 04:01N 40°47' W 010°06'713.8
2017-Oct-06 03:30N 40°54' W 010°06'713.5
2017-Oct-06 03:00N 41°01' W 010°06'713.4
2017-Oct-06 02:30N 41°07' W 010°06'713.7
2017-Oct-06 02:00N 41°14' W 010°06'714.0
2017-Oct-06 01:30N 41°21' W 010°06'713.7
2017-Oct-06 01:00N 41°28' W 010°06'813.4
2017-Oct-06 00:27N 41°36' W 010°06'613.4
2017-Oct-06 00:00N 41°41' W 010°06'813.3
2017-Oct-05 23:26N 41°49' W 010°06'44312.9
2017-Oct-04 13:05N 48°38' W 006°01'311.8
2017-Oct-04 12:48N 48°40' W 005°59'412.0
2017-Oct-04 12:29N 48°44' W 005°56'712.5
2017-Oct-04 11:55N 48°50' W 005°51'513.0
2017-Oct-04 11:30N 48°55' W 005°47'913.5
2017-Oct-04 10:50N 48°59' W 005°35'513.9
2017-Oct-04 10:30N 49°02' W 005°29'813.9
2017-Oct-04 09:57N 49°05' W 005°19'913.8
2017-Oct-04 09:19N 49°10' W 005°08'414.0
2017-Oct-04 09:01N 49°12' W 005°02'1013.9
2017-Oct-04 08:19N 49°17' W 004°49'513.8
2017-Oct-04 07:55N 49°20' W 004°42'813.6
2017-Oct-04 07:19N 49°24' W 004°31'413.3
2017-Oct-04 06:59N 49°26' W 004°26'713.0
2017-Oct-04 06:27N 49°30' W 004°16'612.6
2017-Oct-04 06:00N 49°32' W 004°09'712.3
2017-Oct-04 05:26N 49°36' W 003°59'511.8
2017-Oct-04 05:00N 49°39' W 003°53'611.8
2017-Oct-04 04:30N 49°41' W 003°45'611.8
2017-Oct-04 04:00N 49°44' W 003°37'612.0
2017-Oct-04 03:30N 49°47' W 003°29'612.3
2017-Oct-04 03:01N 49°50' W 003°20'612.9
2017-Oct-04 02:30N 49°53' W 003°12'713.6
2017-Oct-04 02:00N 49°57' W 003°03'714.2
2017-Oct-04 01:30N 50°00' W 002°53'814.9
2017-Oct-04 01:00N 50°02' W 002°42'2815.8
2017-Oct-03 23:16N 50°10' W 002°00'415.5
2017-Oct-03 22:59N 50°11' W 001°54'714.9
2017-Oct-03 22:30N 50°13' W 001°43'714.2
2017-Oct-03 22:00N 50°14' W 001°32'713.3
2017-Oct-03 21:27N 50°16' W 001°21'2211.4
2017-Oct-03 19:30N 50°22' W 000°47'1310.6
2017-Oct-03 18:13N 50°26' W 000°27'211.3
2017-Oct-03 18:00N 50°26' W 000°23'611.8
2017-Oct-03 17:30N 50°29' W 000°15'612.4
2017-Oct-03 17:00N 50°30' W 000°05'612.8
2017-Oct-03 16:30N 50°31' E 000°05'613.1
2017-Oct-03 16:00N 50°32' E 000°15'713.9
2017-Oct-03 15:30N 50°34' E 000°25'714.3
2017-Oct-03 15:00N 50°37' E 000°36'1414.4
2017-Oct-03 14:00N 50°46' E 000°53'713.9
2017-Oct-03 13:30N 50°51' E 001°02'713.3
2017-Oct-03 12:57N 50°55' E 001°10'612.6
2017-Oct-03 12:30N 50°59' E 001°17'612.0
2017-Oct-03 12:00N 51°03' E 001°25'611.8
2017-Oct-03 11:30N 51°06' E 001°32'611.5
2017-Oct-03 11:00N 51°10' E 001°39'611.4
2017-Oct-03 10:30N 51°14' E 001°46'611.9
2017-Oct-03 10:00N 51°19' E 001°51'612.1
2017-Oct-03 09:30N 51°24' E 001°56'612.1
2017-Oct-03 09:00N 51°29' E 002°02'713.0
2017-Oct-03 08:30N 51°34' E 002°09'713.3
2017-Oct-03 07:59N 51°40' E 002°15'11111.3
2017-Oct-02 22:12N 53°21' E 003°29'510.2
2017-Oct-02 21:45N 53°25' E 003°31'28 9.4
2017-Oct-02 18:43N 53°50' E 003°56'2 8.7
2017-Oct-02 18:29N 53°51' E 003°59'4 8.6
2017-Oct-02 18:00N 53°53' E 004°04'4 8.4
2017-Oct-02 17:29N 53°56' E 004°10'4 8.1
2017-Oct-02 16:59N 53°58' E 004°16'4 8.0
2017-Oct-02 16:28N 54°01' E 004°21'4 7.9
2017-Oct-02 15:59N 54°05' E 004°24'4 8.0
2017-Oct-02 15:30N 54°08' E 004°28'4 7.9
2017-Oct-02 14:59N 54°11' E 004°32'4 7.6
2017-Oct-02 14:29N 54°14' E 004°35'290 9.0
2017-Oct-01 06:12N 57°51' E 010°20'313.9
2017-Oct-01 05:59N 57°50' E 010°25'612.2
2017-Oct-01 05:30N 57°49' E 010°36'510.4
2017-Oct-01 05:00N 57°48' E 010°45'5 9.5
2017-Oct-01 04:30N 57°43' E 010°47'610.8
2017-Oct-01 03:58N 57°41' E 010°57'612.8
2017-Oct-01 03:29N 57°37' E 011°07'613.6
2017-Oct-01 03:00N 57°33' E 011°15'174 7.0
2017-Sep-30 02:00N 54°58' E 013°39'713.2
2017-Sep-30 01:30N 55°01' E 013°50'613.0
2017-Sep-30 01:00N 55°03' E 014°00'612.7
2017-Sep-30 00:30N 55°07' E 014°09'713.1
2017-Sep-30 00:00N 55°12' E 014°17'713.5
2017-Sep-29 23:30N 55°17' E 014°24'713.5
2017-Sep-29 23:00N 55°23' E 014°31'612.9
2017-Sep-29 22:30N 55°27' E 014°39'713.2
2017-Sep-29 22:00N 55°30' E 014°49'713.2
2017-Sep-29 21:29N 55°34' E 014°60'613.2
2017-Sep-29 21:00N 55°36' E 015°10'613.0
2017-Sep-29 20:30N 55°38' E 015°21'713.4
2017-Sep-29 20:00N 55°40' E 015°32'713.6
2017-Sep-29 19:30N 55°41' E 015°44'713.4
2017-Sep-29 19:00N 55°44' E 015°56'713.4
2017-Sep-29 18:30N 55°45' E 016°07'713.2
2017-Sep-29 18:00N 55°47' E 016°18'713.1
2017-Sep-29 17:30N 55°49' E 016°30'713.3
2017-Sep-29 17:00N 55°50' E 016°41'713.3
2017-Sep-29 16:30N 55°52' E 016°53'3813.2
2017-Sep-29 13:37N 56°05' E 017°57'4113.0
2017-Sep-29 10:29N 56°27' E 018°58'  

Dump ship's entire track history